Favola — IBFH — position and weather

sailwx.info

Track history (hours):
 
Tides and Currents Weather Stations Pressure Air Temp Water Temp Dewpoint Dewpoint Depression Visibility Wind Speed Wind Dir Waves Ship Positions

Favola

Last reported at 2017-May-26 02:54 UTC. Time now 2017-May-26 03:26 UTC.
Position N 01°13' E 103°48'.

Length 180 m; draft 7.3 m.

Type: Ship (hazmat cat A). MMSI: 247069800.

Date/timePositionNaut miles runAvg speedWind from/ knotsBaromVisibWave heightAir tempDewpointWater temp
2017-May-26 02:54N 01°13' E 103°48'0 0.0
2017-May-26 02:30N 01°13' E 103°48'0 0.0
2017-May-26 02:00N 01°13' E 103°48'0 0.0
2017-May-26 01:27N 01°13' E 103°48'0 0.1
2017-May-26 01:00N 01°13' E 103°48'0 0.2
2017-May-26 00:30N 01°13' E 103°48'0 0.2
2017-May-26 00:00N 01°13' E 103°48'0 0.1
2017-May-25 23:30N 01°14' E 103°48'0 0.1
2017-May-25 23:00N 01°14' E 103°48'0 0.2
2017-May-25 22:30N 01°13' E 103°48'0 0.0
2017-May-25 22:00N 01°13' E 103°48'0 0.1
2017-May-25 21:27N 01°13' E 103°48'0 0.0
2017-May-25 21:00N 01°13' E 103°48'0 0.1
2017-May-25 20:30N 01°13' E 103°48'0 0.0
2017-May-25 19:57N 01°13' E 103°48'0 0.0
2017-May-25 19:18N 01°13' E 103°48'0 0.0
2017-May-25 18:57N 01°13' E 103°48'0 0.0
2017-May-25 18:30N 01°13' E 103°48'0 0.0
2017-May-25 18:00N 01°13' E 103°48'0 0.0
2017-May-25 17:24N 01°13' E 103°48'0 0.4
2017-May-25 16:57N 01°13' E 103°48'0 0.3
2017-May-25 16:30N 01°14' E 103°48'0 0.1
2017-May-25 15:51N 01°14' E 103°48'0 0.2
2017-May-25 15:30N 01°14' E 103°48'0 0.0
2017-May-25 15:00N 01°14' E 103°48'0 0.1
2017-May-25 14:30N 01°14' E 103°48'0 0.0
2017-May-25 13:30N 01°14' E 103°48'0 0.0
2017-May-25 12:54N 01°14' E 103°48'0 0.0
2017-May-25 12:30N 01°14' E 103°48'0 0.0
2017-May-25 11:48N 01°14' E 103°48'0 0.0
2017-May-25 11:27N 01°14' E 103°48'0 0.0
2017-May-25 11:00N 01°14' E 103°48'0 0.0
2017-May-25 10:30N 01°14' E 103°48'0 0.0
2017-May-25 10:00N 01°14' E 103°48'0 0.0
2017-May-25 09:25N 01°14' E 103°48'0 0.0
2017-May-25 08:57N 01°14' E 103°48'0 0.0
2017-May-25 08:30N 01°14' E 103°48'0 0.1
2017-May-25 07:57N 01°14' E 103°48'0 0.0
2017-May-25 07:30N 01°14' E 103°48'0 0.1
2017-May-25 06:57N 01°14' E 103°48'0 0.0
2017-May-25 06:30N 01°14' E 103°48'0 0.1
2017-May-25 05:57N 01°14' E 103°48'0 0.0
2017-May-25 05:27N 01°14' E 103°48'0 0.0
2017-May-25 04:54N 01°14' E 103°48'0 0.4
2017-May-25 04:29N 01°13' E 103°48'0 0.1
2017-May-25 04:00N 01°13' E 103°48'0 0.0
2017-May-25 03:29N 01°13' E 103°48'0 0.0
2017-May-25 03:00N 01°13' E 103°48'0 0.0
2017-May-25 02:30N 01°13' E 103°48'0 0.0
2017-May-25 01:56N 01°13' E 103°48'0 0.0
2017-May-25 01:29N 01°13' E 103°48'0 0.0
2017-May-25 00:56N 01°13' E 103°48'0 0.1
2017-May-25 00:29N 01°13' E 103°48'0 0.1
2017-May-24 23:59N 01°13' E 103°48'0 0.1
2017-May-24 23:29N 01°13' E 103°48'0 0.0
2017-May-24 22:59N 01°13' E 103°48'0 0.1
2017-May-24 22:29N 01°13' E 103°48'0 0.1
2017-May-24 21:59N 01°13' E 103°48'0 0.0
2017-May-24 21:29N 01°13' E 103°48'0 0.0
2017-May-24 20:59N 01°13' E 103°48'0 0.0
2017-May-24 20:29N 01°13' E 103°48'0 0.0
2017-May-24 19:59N 01°13' E 103°48'0 0.0
2017-May-24 19:29N 01°13' E 103°48'0 0.0
2017-May-24 19:00N 01°13' E 103°48'0 0.0
2017-May-24 18:30N 01°13' E 103°48'0 0.0
2017-May-24 18:00N 01°13' E 103°48'2 3.2
2017-May-24 17:30N 01°13' E 103°49'510.3
2017-May-24 17:00N 01°14' E 103°54'5 9.8
2017-May-24 16:30N 01°16' E 103°59'3 6.4
2017-May-24 15:59N 01°16' E 104°02'4 6.8
2017-May-24 15:22N 01°17' E 104°06'3 7.9
2017-May-24 14:58N 01°20' E 104°04'5 8.0
2017-May-24 14:24N 01°23' E 104°01'3 3.6
2017-May-24 13:30N 01°26' E 104°01'0 0.0
2017-May-24 13:00N 01°26' E 104°01'0 0.0
2017-May-24 12:30N 01°26' E 104°01'0 0.0
2017-May-24 12:00N 01°26' E 104°01'0 0.0
2017-May-24 11:30N 01°26' E 104°01'0 0.0
2017-May-24 11:00N 01°26' E 104°01'0 0.0
2017-May-24 10:30N 01°26' E 104°01'0 0.0
2017-May-24 10:00N 01°26' E 104°01'0 0.0
2017-May-24 09:30N 01°26' E 104°01'0 0.0
2017-May-24 09:00N 01°26' E 104°01'0 0.0
2017-May-24 08:30N 01°26' E 104°01'0 0.0
2017-May-24 08:00N 01°26' E 104°01'0 0.0
2017-May-24 07:30N 01°26' E 104°01'0 0.0
2017-May-24 07:00N 01°26' E 104°01'0 0.0
2017-May-24 06:30N 01°26' E 104°01'0 0.0
2017-May-24 06:00N 01°26' E 104°01'0 0.0
2017-May-24 05:30N 01°26' E 104°01'0 0.0
2017-May-24 05:00N 01°26' E 104°01'0 0.0
2017-May-24 04:30N 01°26' E 104°01'0 0.0
2017-May-24 04:00N 01°26' E 104°01'0 0.0
2017-May-24 03:30N 01°26' E 104°01'0 0.0
2017-May-24 03:00N 01°26' E 104°01'0 0.0
2017-May-24 02:30N 01°26' E 104°01'0 0.0
2017-May-24 02:00N 01°26' E 104°01'0 0.0
2017-May-24 01:30N 01°26' E 104°01'0 0.0
2017-May-24 00:59N 01°26' E 104°01'0 0.0
2017-May-24 00:30N 01°26' E 104°01'0 0.0
2017-May-23 23:42N 01°26' E 104°01'0 0.0
2017-May-23 23:25N 01°26' E 104°01'0 0.0
2017-May-23 23:00N 01°26' E 104°01'0 0.0
2017-May-23 22:30N 01°26' E 104°01'0 0.0
2017-May-23 22:00N 01°26' E 104°01'0 0.0
2017-May-23 21:30N 01°26' E 104°01'0 0.0
2017-May-23 20:59N 01°26' E 104°01'0 0.0
2017-May-23 20:26N 01°26' E 104°01'0 0.0
2017-May-23 20:00N 01°26' E 104°01'0 0.0
2017-May-23 19:30N 01°26' E 104°01'0 0.0
2017-May-23 18:59N 01°26' E 104°01'0 0.0
2017-May-23 18:30N 01°26' E 104°01'0 0.0
2017-May-23 18:00N 01°26' E 104°01'0 0.0
2017-May-23 17:30N 01°26' E 104°01'0 0.0
2017-May-23 16:59N 01°26' E 104°01'0 0.0
2017-May-23 16:16N 01°26' E 104°01'0 0.0
2017-May-23 15:59N 01°26' E 104°01'0 0.0
2017-May-23 15:30N 01°26' E 104°01'0 0.0
2017-May-23 14:58N 01°26' E 104°01'0 0.0
2017-May-23 14:27N 01°26' E 104°01'0 0.0
2017-May-23 13:20N 01°26' E 104°01'0 0.0
2017-May-23 13:00N 01°26' E 104°01'0 0.0
2017-May-23 12:29N 01°26' E 104°01'0 0.0
2017-May-23 12:00N 01°26' E 104°01'0 0.0
2017-May-23 11:29N 01°26' E 104°01'0 0.0
2017-May-23 11:00N 01°26' E 104°01'0 0.0
2017-May-23 10:27N 01°26' E 104°01'0 0.0
2017-May-23 10:00N 01°26' E 104°01'0 0.0
2017-May-23 09:30N 01°26' E 104°01'1 0.6
2017-May-23 07:39N 01°25' E 104°00'1 6.3
2017-May-23 07:29N 01°24' E 104°01'510.7
2017-May-23 06:59N 01°20' E 104°04'  
Track history (hours):
 
Tides and Currents Weather Stations Pressure Air Temp Water Temp Dewpoint Dewpoint Depression Visibility Wind Speed Wind Dir Waves Ship Positions

Favola

Last reported at 2017-May-26 02:54 UTC. Time now 2017-May-26 03:26 UTC.
Position N 01°13' E 103°48'.

Length 180 m; draft 7.3 m.

Type: Ship (hazmat cat A). MMSI: 247069800.

Date/timePositionNaut miles runAvg speedWind from/ knotsBaromVisibWave heightAir tempDewpointWater temp
2017-May-26 02:54N 01°13' E 103°48'0 0.0
2017-May-26 02:30N 01°13' E 103°48'0 0.0
2017-May-26 02:00N 01°13' E 103°48'0 0.0
2017-May-26 01:27N 01°13' E 103°48'0 0.1
2017-May-26 01:00N 01°13' E 103°48'0 0.2
2017-May-26 00:30N 01°13' E 103°48'0 0.2
2017-May-26 00:00N 01°13' E 103°48'0 0.1
2017-May-25 23:30N 01°14' E 103°48'0 0.1
2017-May-25 23:00N 01°14' E 103°48'0 0.2
2017-May-25 22:30N 01°13' E 103°48'0 0.0
2017-May-25 22:00N 01°13' E 103°48'0 0.1
2017-May-25 21:27N 01°13' E 103°48'0 0.0
2017-May-25 21:00N 01°13' E 103°48'0 0.1
2017-May-25 20:30N 01°13' E 103°48'0 0.0
2017-May-25 19:57N 01°13' E 103°48'0 0.0
2017-May-25 19:18N 01°13' E 103°48'0 0.0
2017-May-25 18:57N 01°13' E 103°48'0 0.0
2017-May-25 18:30N 01°13' E 103°48'0 0.0
2017-May-25 18:00N 01°13' E 103°48'0 0.0
2017-May-25 17:24N 01°13' E 103°48'0 0.4
2017-May-25 16:57N 01°13' E 103°48'0 0.3
2017-May-25 16:30N 01°14' E 103°48'0 0.1
2017-May-25 15:51N 01°14' E 103°48'0 0.2
2017-May-25 15:30N 01°14' E 103°48'0 0.0
2017-May-25 15:00N 01°14' E 103°48'0 0.1
2017-May-25 14:30N 01°14' E 103°48'0 0.0
2017-May-25 13:30N 01°14' E 103°48'0 0.0
2017-May-25 12:54N 01°14' E 103°48'0 0.0
2017-May-25 12:30N 01°14' E 103°48'0 0.0
2017-May-25 11:48N 01°14' E 103°48'0 0.0
2017-May-25 11:27N 01°14' E 103°48'0 0.0
2017-May-25 11:00N 01°14' E 103°48'0 0.0
2017-May-25 10:30N 01°14' E 103°48'0 0.0
2017-May-25 10:00N 01°14' E 103°48'0 0.0
2017-May-25 09:25N 01°14' E 103°48'0 0.0
2017-May-25 08:57N 01°14' E 103°48'0 0.0
2017-May-25 08:30N 01°14' E 103°48'0 0.1
2017-May-25 07:57N 01°14' E 103°48'0 0.0
2017-May-25 07:30N 01°14' E 103°48'0 0.1
2017-May-25 06:57N 01°14' E 103°48'0 0.0
2017-May-25 06:30N 01°14' E 103°48'0 0.1
2017-May-25 05:57N 01°14' E 103°48'0 0.0
2017-May-25 05:27N 01°14' E 103°48'0 0.0
2017-May-25 04:54N 01°14' E 103°48'0 0.4
2017-May-25 04:29N 01°13' E 103°48'0 0.1
2017-May-25 04:00N 01°13' E 103°48'0 0.0
2017-May-25 03:29N 01°13' E 103°48'0 0.0
2017-May-25 03:00N 01°13' E 103°48'0 0.0
2017-May-25 02:30N 01°13' E 103°48'0 0.0
2017-May-25 01:56N 01°13' E 103°48'0 0.0
2017-May-25 01:29N 01°13' E 103°48'0 0.0
2017-May-25 00:56N 01°13' E 103°48'0 0.1
2017-May-25 00:29N 01°13' E 103°48'0 0.1
2017-May-24 23:59N 01°13' E 103°48'0 0.1
2017-May-24 23:29N 01°13' E 103°48'0 0.0
2017-May-24 22:59N 01°13' E 103°48'0 0.1
2017-May-24 22:29N 01°13' E 103°48'0 0.1
2017-May-24 21:59N 01°13' E 103°48'0 0.0
2017-May-24 21:29N 01°13' E 103°48'0 0.0
2017-May-24 20:59N 01°13' E 103°48'0 0.0
2017-May-24 20:29N 01°13' E 103°48'0 0.0
2017-May-24 19:59N 01°13' E 103°48'0 0.0
2017-May-24 19:29N 01°13' E 103°48'0 0.0
2017-May-24 19:00N 01°13' E 103°48'0 0.0
2017-May-24 18:30N 01°13' E 103°48'0 0.0
2017-May-24 18:00N 01°13' E 103°48'2 3.2
2017-May-24 17:30N 01°13' E 103°49'510.3
2017-May-24 17:00N 01°14' E 103°54'5 9.8
2017-May-24 16:30N 01°16' E 103°59'3 6.4
2017-May-24 15:59N 01°16' E 104°02'4 6.8
2017-May-24 15:22N 01°17' E 104°06'3 7.9
2017-May-24 14:58N 01°20' E 104°04'5 8.0
2017-May-24 14:24N 01°23' E 104°01'3 3.6
2017-May-24 13:30N 01°26' E 104°01'0 0.0
2017-May-24 13:00N 01°26' E 104°01'0 0.0
2017-May-24 12:30N 01°26' E 104°01'0 0.0
2017-May-24 12:00N 01°26' E 104°01'0 0.0
2017-May-24 11:30N 01°26' E 104°01'0 0.0
2017-May-24 11:00N 01°26' E 104°01'0 0.0
2017-May-24 10:30N 01°26' E 104°01'0 0.0
2017-May-24 10:00N 01°26' E 104°01'0 0.0
2017-May-24 09:30N 01°26' E 104°01'0 0.0
2017-May-24 09:00N 01°26' E 104°01'0 0.0
2017-May-24 08:30N 01°26' E 104°01'0 0.0
2017-May-24 08:00N 01°26' E 104°01'0 0.0
2017-May-24 07:30N 01°26' E 104°01'0 0.0
2017-May-24 07:00N 01°26' E 104°01'0 0.0
2017-May-24 06:30N 01°26' E 104°01'0 0.0
2017-May-24 06:00N 01°26' E 104°01'0 0.0
2017-May-24 05:30N 01°26' E 104°01'0 0.0
2017-May-24 05:00N 01°26' E 104°01'0 0.0
2017-May-24 04:30N 01°26' E 104°01'0 0.0
2017-May-24 04:00N 01°26' E 104°01'0 0.0
2017-May-24 03:30N 01°26' E 104°01'0 0.0
2017-May-24 03:00N 01°26' E 104°01'0 0.0
2017-May-24 02:30N 01°26' E 104°01'0 0.0
2017-May-24 02:00N 01°26' E 104°01'0 0.0
2017-May-24 01:30N 01°26' E 104°01'0 0.0
2017-May-24 00:59N 01°26' E 104°01'0 0.0
2017-May-24 00:30N 01°26' E 104°01'0 0.0
2017-May-23 23:42N 01°26' E 104°01'0 0.0
2017-May-23 23:25N 01°26' E 104°01'0 0.0
2017-May-23 23:00N 01°26' E 104°01'0 0.0
2017-May-23 22:30N 01°26' E 104°01'0 0.0
2017-May-23 22:00N 01°26' E 104°01'0 0.0
2017-May-23 21:30N 01°26' E 104°01'0 0.0
2017-May-23 20:59N 01°26' E 104°01'0 0.0
2017-May-23 20:26N 01°26' E 104°01'0 0.0
2017-May-23 20:00N 01°26' E 104°01'0 0.0
2017-May-23 19:30N 01°26' E 104°01'0 0.0
2017-May-23 18:59N 01°26' E 104°01'0 0.0
2017-May-23 18:30N 01°26' E 104°01'0 0.0
2017-May-23 18:00N 01°26' E 104°01'0 0.0
2017-May-23 17:30N 01°26' E 104°01'0 0.0
2017-May-23 16:59N 01°26' E 104°01'0 0.0
2017-May-23 16:16N 01°26' E 104°01'0 0.0
2017-May-23 15:59N 01°26' E 104°01'0 0.0
2017-May-23 15:30N 01°26' E 104°01'0 0.0
2017-May-23 14:58N 01°26' E 104°01'0 0.0
2017-May-23 14:27N 01°26' E 104°01'0 0.0
2017-May-23 13:20N 01°26' E 104°01'0 0.0
2017-May-23 13:00N 01°26' E 104°01'0 0.0
2017-May-23 12:29N 01°26' E 104°01'0 0.0
2017-May-23 12:00N 01°26' E 104°01'0 0.0
2017-May-23 11:29N 01°26' E 104°01'0 0.0
2017-May-23 11:00N 01°26' E 104°01'0 0.0
2017-May-23 10:27N 01°26' E 104°01'0 0.0
2017-May-23 10:00N 01°26' E 104°01'0 0.0
2017-May-23 09:30N 01°26' E 104°01'1 0.6
2017-May-23 07:39N 01°25' E 104°00'1 6.3
2017-May-23 07:29N 01°24' E 104°01'510.7
2017-May-23 06:59N 01°20' E 104°04'  

Dump ship's entire track history